sensor_id;sensor_type;location;lat;lon;timestamp;temperature;humidity
81192;DHT22;70665;47.652;-2.730;2024-03-22T00:02:22;13.00;99.90
81192;DHT22;70665;47.652;-2.730;2024-03-22T00:04:48;13.00;99.90
81192;DHT22;70665;47.652;-2.730;2024-03-22T00:07:13;12.90;99.90
81192;DHT22;70665;47.652;-2.730;2024-03-22T00:09:39;13.00;99.90
81192;DHT22;70665;47.652;-2.730;2024-03-22T00:12:05;12.90;99.90
81192;DHT22;70665;47.652;-2.730;2024-03-22T00:14:31;12.90;99.90
81192;DHT22;70665;47.652;-2.730;2024-03-22T00:16:56;12.90;99.90
81192;DHT22;70665;47.652;-2.730;2024-03-22T00:19:22;13.00;99.90
81192;DHT22;70665;47.652;-2.730;2024-03-22T00:21:47;13.10;99.90
81192;DHT22;70665;47.652;-2.730;2024-03-22T00:24:13;12.90;99.90
81192;DHT22;70665;47.652;-2.730;2024-03-22T00:26:39;13.00;99.90
81192;DHT22;70665;47.652;-2.730;2024-03-22T00:29:04;13.00;99.90
81192;DHT22;70665;47.652;-2.730;2024-03-22T00:31:30;12.90;99.90
81192;DHT22;70665;47.652;-2.730;2024-03-22T00:33:56;12.90;99.90
81192;DHT22;70665;47.652;-2.730;2024-03-22T00:36:21;13.00;99.90
81192;DHT22;70665;47.652;-2.730;2024-03-22T00:38:47;12.90;99.90
81192;DHT22;70665;47.652;-2.730;2024-03-22T00:41:13;13.00;99.90
81192;DHT22;70665;47.652;-2.730;2024-03-22T00:43:38;13.00;99.90
81192;DHT22;70665;47.652;-2.730;2024-03-22T00:46:04;13.00;99.90
81192;DHT22;70665;47.652;-2.730;2024-03-22T00:48:29;13.10;99.90
81192;DHT22;70665;47.652;-2.730;2024-03-22T00:50:55;13.00;99.90
81192;DHT22;70665;47.652;-2.730;2024-03-22T00:53:21;12.90;99.90
81192;DHT22;70665;47.652;-2.730;2024-03-22T00:55:46;13.00;99.90
81192;DHT22;70665;47.652;-2.730;2024-03-22T00:58:19;13.00;99.90
81192;DHT22;70665;47.652;-2.730;2024-03-22T01:00:45;12.90;99.90
81192;DHT22;70665;47.652;-2.730;2024-03-22T01:03:11;13.00;99.90
81192;DHT22;70665;47.652;-2.730;2024-03-22T01:05:36;13.00;99.90
81192;DHT22;70665;47.652;-2.730;2024-03-22T01:08:02;13.00;99.90
81192;DHT22;70665;47.652;-2.730;2024-03-22T01:10:28;12.90;99.90
81192;DHT22;70665;47.652;-2.730;2024-03-22T01:12:53;12.90;99.90
81192;DHT22;70665;47.652;-2.730;2024-03-22T01:15:19;12.80;99.90
81192;DHT22;70665;47.652;-2.730;2024-03-22T01:17:45;12.80;99.90
81192;DHT22;70665;47.652;-2.730;2024-03-22T01:20:10;12.90;99.90
81192;DHT22;70665;47.652;-2.730;2024-03-22T01:22:36;12.90;99.90
81192;DHT22;70665;47.652;-2.730;2024-03-22T01:25:02;12.90;99.90
81192;DHT22;70665;47.652;-2.730;2024-03-22T01:27:28;12.90;99.90
81192;DHT22;70665;47.652;-2.730;2024-03-22T01:29:54;12.90;99.90
81192;DHT22;70665;47.652;-2.730;2024-03-22T01:32:19;12.70;99.90
81192;DHT22;70665;47.652;-2.730;2024-03-22T01:34:45;12.70;99.90
81192;DHT22;70665;47.652;-2.730;2024-03-22T01:37:10;12.60;99.90
81192;DHT22;70665;47.652;-2.730;2024-03-22T01:39:36;12.60;99.90
81192;DHT22;70665;47.652;-2.730;2024-03-22T01:42:02;12.70;99.90
81192;DHT22;70665;47.652;-2.730;2024-03-22T01:44:28;12.70;99.90
81192;DHT22;70665;47.652;-2.730;2024-03-22T01:46:55;12.60;99.90
81192;DHT22;70665;47.652;-2.730;2024-03-22T01:49:21;12.60;99.90
81192;DHT22;70665;47.652;-2.730;2024-03-22T01:51:47;12.60;99.90
81192;DHT22;70665;47.652;-2.730;2024-03-22T01:54:15;12.60;99.90
81192;DHT22;70665;47.652;-2.730;2024-03-22T01:56:41;12.60;99.90
81192;DHT22;70665;47.652;-2.730;2024-03-22T01:59:07;12.50;99.90
81192;DHT22;70665;47.652;-2.730;2024-03-22T02:01:33;12.40;99.90
81192;DHT22;70665;47.652;-2.730;2024-03-22T02:04:00;12.40;99.90
81192;DHT22;70665;47.652;-2.730;2024-03-22T02:06:25;12.40;99.90
81192;DHT22;70665;47.652;-2.730;2024-03-22T02:08:51;12.50;99.90
81192;DHT22;70665;47.652;-2.730;2024-03-22T02:11:17;12.60;99.90
81192;DHT22;70665;47.652;-2.730;2024-03-22T02:13:42;12.50;99.90
81192;DHT22;70665;47.652;-2.730;2024-03-22T02:16:08;12.40;99.90
81192;DHT22;70665;47.652;-2.730;2024-03-22T02:18:34;12.50;99.90
81192;DHT22;70665;47.652;-2.730;2024-03-22T02:21:00;12.50;99.90
81192;DHT22;70665;47.652;-2.730;2024-03-22T02:23:36;12.70;99.90
81192;DHT22;70665;47.652;-2.730;2024-03-22T02:26:02;12.60;99.90
81192;DHT22;70665;47.652;-2.730;2024-03-22T02:28:29;12.50;99.90
81192;DHT22;70665;47.652;-2.730;2024-03-22T02:30:55;12.60;99.90
81192;DHT22;70665;47.652;-2.730;2024-03-22T02:33:21;12.60;99.90
81192;DHT22;70665;47.652;-2.730;2024-03-22T02:35:47;12.50;99.90
81192;DHT22;70665;47.652;-2.730;2024-03-22T02:38:13;12.40;99.90
81192;DHT22;70665;47.652;-2.730;2024-03-22T02:40:38;12.30;99.90
81192;DHT22;70665;47.652;-2.730;2024-03-22T02:43:04;12.30;99.90
81192;DHT22;70665;47.652;-2.730;2024-03-22T02:45:30;12.20;99.90
81192;DHT22;70665;47.652;-2.730;2024-03-22T02:47:56;12.20;99.90
81192;DHT22;70665;47.652;-2.730;2024-03-22T02:50:22;12.20;99.90
81192;DHT22;70665;47.652;-2.730;2024-03-22T02:52:51;12.20;99.90
81192;DHT22;70665;47.652;-2.730;2024-03-22T02:55:16;12.30;99.90
81192;DHT22;70665;47.652;-2.730;2024-03-22T02:57:42;12.30;99.90
81192;DHT22;70665;47.652;-2.730;2024-03-22T03:00:08;12.30;99.90
81192;DHT22;70665;47.652;-2.730;2024-03-22T03:02:35;12.40;99.90
81192;DHT22;70665;47.652;-2.730;2024-03-22T03:05:00;12.40;99.90
81192;DHT22;70665;47.652;-2.730;2024-03-22T03:07:26;12.40;99.90
81192;DHT22;70665;47.652;-2.730;2024-03-22T03:09:53;12.30;99.90
81192;DHT22;70665;47.652;-2.730;2024-03-22T03:12:18;12.10;99.90
81192;DHT22;70665;47.652;-2.730;2024-03-22T03:14:44;12.20;99.90
81192;DHT22;70665;47.652;-2.730;2024-03-22T03:17:10;12.20;99.90
81192;DHT22;70665;47.652;-2.730;2024-03-22T03:19:36;12.20;99.90
81192;DHT22;70665;47.652;-2.730;2024-03-22T03:22:02;12.10;99.90
81192;DHT22;70665;47.652;-2.730;2024-03-22T03:24:28;12.10;99.90
81192;DHT22;70665;47.652;-2.730;2024-03-22T03:26:53;12.10;99.90
81192;DHT22;70665;47.652;-2.730;2024-03-22T03:29:19;11.90;99.90
81192;DHT22;70665;47.652;-2.730;2024-03-22T03:31:45;12.00;99.90
81192;DHT22;70665;47.652;-2.730;2024-03-22T03:34:11;11.80;99.90
81192;DHT22;70665;47.652;-2.730;2024-03-22T03:36:36;11.70;99.90
81192;DHT22;70665;47.652;-2.730;2024-03-22T03:39:02;11.70;99.90
81192;DHT22;70665;47.652;-2.730;2024-03-22T03:41:29;11.80;99.90
81192;DHT22;70665;47.652;-2.730;2024-03-22T03:43:54;11.90;99.90
81192;DHT22;70665;47.652;-2.730;2024-03-22T03:46:20;11.80;99.90
81192;DHT22;70665;47.652;-2.730;2024-03-22T03:48:46;11.90;99.90
81192;DHT22;70665;47.652;-2.730;2024-03-22T03:51:11;11.80;99.90
81192;DHT22;70665;47.652;-2.730;2024-03-22T03:53:37;11.90;99.90
81192;DHT22;70665;47.652;-2.730;2024-03-22T03:56:03;11.90;99.90
81192;DHT22;70665;47.652;-2.730;2024-03-22T03:58:28;11.90;99.90
81192;DHT22;70665;47.652;-2.730;2024-03-22T04:00:54;11.80;99.90
81192;DHT22;70665;47.652;-2.730;2024-03-22T04:03:20;11.80;99.90
81192;DHT22;70665;47.652;-2.730;2024-03-22T04:05:45;11.70;99.90
81192;DHT22;70665;47.652;-2.730;2024-03-22T04:08:11;11.60;99.90
81192;DHT22;70665;47.652;-2.730;2024-03-22T04:10:37;11.50;99.90
81192;DHT22;70665;47.652;-2.730;2024-03-22T04:13:02;11.60;99.90
81192;DHT22;70665;47.652;-2.730;2024-03-22T04:15:28;11.50;99.90
81192;DHT22;70665;47.652;-2.730;2024-03-22T04:17:56;11.60;99.90
81192;DHT22;70665;47.652;-2.730;2024-03-22T04:20:22;11.60;99.90
81192;DHT22;70665;47.652;-2.730;2024-03-22T04:22:47;11.60;99.90
81192;DHT22;70665;47.652;-2.730;2024-03-22T04:25:17;11.50;99.90
81192;DHT22;70665;47.652;-2.730;2024-03-22T04:27:43;11.20;99.90
81192;DHT22;70665;47.652;-2.730;2024-03-22T04:30:09;11.10;99.90
81192;DHT22;70665;47.652;-2.730;2024-03-22T04:32:35;11.00;99.90
81192;DHT22;70665;47.652;-2.730;2024-03-22T04:35:02;11.00;99.90
81192;DHT22;70665;47.652;-2.730;2024-03-22T04:37:28;11.00;99.90
81192;DHT22;70665;47.652;-2.730;2024-03-22T04:39:53;10.80;99.90
81192;DHT22;70665;47.652;-2.730;2024-03-22T04:42:19;10.60;99.90
81192;DHT22;70665;47.652;-2.730;2024-03-22T04:44:45;10.60;99.90
81192;DHT22;70665;47.652;-2.730;2024-03-22T04:47:11;10.60;99.90
81192;DHT22;70665;47.652;-2.730;2024-03-22T04:49:36;10.80;99.90
81192;DHT22;70665;47.652;-2.730;2024-03-22T04:52:02;10.90;99.90
81192;DHT22;70665;47.652;-2.730;2024-03-22T04:54:27;10.90;99.90
81192;DHT22;70665;47.652;-2.730;2024-03-22T04:56:53;10.90;99.90
81192;DHT22;70665;47.652;-2.730;2024-03-22T04:59:19;10.90;99.90
81192;DHT22;70665;47.652;-2.730;2024-03-22T05:01:44;10.90;99.90
81192;DHT22;70665;47.652;-2.730;2024-03-22T05:04:10;11.00;99.90
81192;DHT22;70665;47.652;-2.730;2024-03-22T05:06:35;11.20;99.90
81192;DHT22;70665;47.652;-2.730;2024-03-22T05:09:01;11.20;99.90
81192;DHT22;70665;47.652;-2.730;2024-03-22T05:11:28;11.20;99.90
81192;DHT22;70665;47.652;-2.730;2024-03-22T05:13:54;11.20;99.90
81192;DHT22;70665;47.652;-2.730;2024-03-22T05:16:20;11.30;99.90
81192;DHT22;70665;47.652;-2.730;2024-03-22T05:18:45;11.30;99.90
81192;DHT22;70665;47.652;-2.730;2024-03-22T05:21:11;11.20;99.90
81192;DHT22;70665;47.652;-2.730;2024-03-22T05:23:36;11.30;99.90
81192;DHT22;70665;47.652;-2.730;2024-03-22T05:26:02;11.20;99.90
81192;DHT22;70665;47.652;-2.730;2024-03-22T05:28:29;11.30;99.90
81192;DHT22;70665;47.652;-2.730;2024-03-22T05:30:56;11.30;99.90
81192;DHT22;70665;47.652;-2.730;2024-03-22T05:33:21;11.30;99.90
81192;DHT22;70665;47.652;-2.730;2024-03-22T05:35:47;11.30;99.90
81192;DHT22;70665;47.652;-2.730;2024-03-22T05:38:12;11.40;99.90
81192;DHT22;70665;47.652;-2.730;2024-03-22T05:40:38;11.40;99.90
81192;DHT22;70665;47.652;-2.730;2024-03-22T05:43:04;11.50;99.90
81192;DHT22;70665;47.652;-2.730;2024-03-22T05:45:30;11.50;99.90
81192;DHT22;70665;47.652;-2.730;2024-03-22T05:47:55;11.50;99.90
81192;DHT22;70665;47.652;-2.730;2024-03-22T05:50:21;11.40;99.90
81192;DHT22;70665;47.652;-2.730;2024-03-22T05:52:47;11.40;99.90
81192;DHT22;70665;47.652;-2.730;2024-03-22T05:55:13;11.50;99.90
81192;DHT22;70665;47.652;-2.730;2024-03-22T05:57:38;11.40;99.90
81192;DHT22;70665;47.652;-2.730;2024-03-22T06:00:05;11.30;99.90
81192;DHT22;70665;47.652;-2.730;2024-03-22T06:02:32;11.40;99.90
81192;DHT22;70665;47.652;-2.730;2024-03-22T06:04:58;11.30;99.90
81192;DHT22;70665;47.652;-2.730;2024-03-22T06:07:24;11.30;99.90
81192;DHT22;70665;47.652;-2.730;2024-03-22T06:09:50;11.30;99.90
81192;DHT22;70665;47.652;-2.730;2024-03-22T06:12:18;11.30;99.90
81192;DHT22;70665;47.652;-2.730;2024-03-22T06:14:44;11.30;99.90
81192;DHT22;70665;47.652;-2.730;2024-03-22T06:17:10;11.30;99.90
81192;DHT22;70665;47.652;-2.730;2024-03-22T06:19:36;11.40;99.90
81192;DHT22;70665;47.652;-2.730;2024-03-22T06:22:02;11.40;99.90
81192;DHT22;70665;47.652;-2.730;2024-03-22T06:24:28;11.40;99.90
81192;DHT22;70665;47.652;-2.730;2024-03-22T06:26:54;11.40;99.90
81192;DHT22;70665;47.652;-2.730;2024-03-22T06:29:19;11.50;99.90
81192;DHT22;70665;47.652;-2.730;2024-03-22T06:31:45;11.50;99.90
81192;DHT22;70665;47.652;-2.730;2024-03-22T06:34:11;11.60;99.90
81192;DHT22;70665;47.652;-2.730;2024-03-22T06:36:36;11.50;99.90
81192;DHT22;70665;47.652;-2.730;2024-03-22T06:39:02;11.50;99.90
81192;DHT22;70665;47.652;-2.730;2024-03-22T06:41:32;11.50;99.90
81192;DHT22;70665;47.652;-2.730;2024-03-22T06:43:57;11.50;99.90
81192;DHT22;70665;47.652;-2.730;2024-03-22T06:46:23;11.50;99.90
81192;DHT22;70665;47.652;-2.730;2024-03-22T06:48:48;11.40;99.90
81192;DHT22;70665;47.652;-2.730;2024-03-22T06:51:14;11.30;99.90
81192;DHT22;70665;47.652;-2.730;2024-03-22T06:53:40;11.20;99.90
81192;DHT22;70665;47.652;-2.730;2024-03-22T06:56:06;11.30;99.90
81192;DHT22;70665;47.652;-2.730;2024-03-22T06:58:35;11.30;99.90
81192;DHT22;70665;47.652;-2.730;2024-03-22T07:01:00;11.30;99.90
81192;DHT22;70665;47.652;-2.730;2024-03-22T07:03:26;11.30;99.90
81192;DHT22;70665;47.652;-2.730;2024-03-22T07:05:52;11.30;99.90
81192;DHT22;70665;47.652;-2.730;2024-03-22T07:08:18;11.30;99.90
81192;DHT22;70665;47.652;-2.730;2024-03-22T07:10:44;11.40;99.90
81192;DHT22;70665;47.652;-2.730;2024-03-22T07:13:10;11.30;99.90
81192;DHT22;70665;47.652;-2.730;2024-03-22T07:15:36;11.40;99.90
81192;DHT22;70665;47.652;-2.730;2024-03-22T07:18:03;11.50;99.90
81192;DHT22;70665;47.652;-2.730;2024-03-22T07:20:30;11.50;99.90
81192;DHT22;70665;47.652;-2.730;2024-03-22T07:22:55;11.50;99.90
81192;DHT22;70665;47.652;-2.730;2024-03-22T07:25:21;11.60;99.90
81192;DHT22;70665;47.652;-2.730;2024-03-22T07:27:46;11.80;99.90
81192;DHT22;70665;47.652;-2.730;2024-03-22T07:30:14;11.70;99.90
81192;DHT22;70665;47.652;-2.730;2024-03-22T07:32:40;11.90;99.90
81192;DHT22;70665;47.652;-2.730;2024-03-22T07:35:07;11.90;99.90
81192;DHT22;70665;47.652;-2.730;2024-03-22T07:37:35;11.90;99.90
81192;DHT22;70665;47.652;-2.730;2024-03-22T07:40:02;11.90;99.90
81192;DHT22;70665;47.652;-2.730;2024-03-22T07:42:28;11.90;99.90
81192;DHT22;70665;47.652;-2.730;2024-03-22T07:44:53;12.10;99.90
81192;DHT22;70665;47.652;-2.730;2024-03-22T07:47:19;12.20;99.90
81192;DHT22;70665;47.652;-2.730;2024-03-22T07:49:45;12.10;99.90
81192;DHT22;70665;47.652;-2.730;2024-03-22T07:52:10;11.90;99.90
81192;DHT22;70665;47.652;-2.730;2024-03-22T07:54:36;11.70;99.90
81192;DHT22;70665;47.652;-2.730;2024-03-22T07:57:02;11.50;99.90
81192;DHT22;70665;47.652;-2.730;2024-03-22T07:59:28;11.50;99.90
81192;DHT22;70665;47.652;-2.730;2024-03-22T08:01:53;11.60;99.90
81192;DHT22;70665;47.652;-2.730;2024-03-22T08:04:19;11.50;99.90
81192;DHT22;70665;47.652;-2.730;2024-03-22T08:06:45;11.50;99.90
81192;DHT22;70665;47.652;-2.730;2024-03-22T08:09:11;11.70;99.90
81192;DHT22;70665;47.652;-2.730;2024-03-22T08:11:37;11.80;99.90
81192;DHT22;70665;47.652;-2.730;2024-03-22T08:14:02;11.60;99.90
81192;DHT22;70665;47.652;-2.730;2024-03-22T08:16:31;11.60;99.90
81192;DHT22;70665;47.652;-2.730;2024-03-22T08:18:57;11.60;99.90
81192;DHT22;70665;47.652;-2.730;2024-03-22T08:21:24;11.60;99.90
81192;DHT22;70665;47.652;-2.730;2024-03-22T08:23:52;11.80;99.90
81192;DHT22;70665;47.652;-2.730;2024-03-22T08:26:18;11.70;99.90
81192;DHT22;70665;47.652;-2.730;2024-03-22T08:28:46;11.60;99.90
81192;DHT22;70665;47.652;-2.730;2024-03-22T08:31:12;11.50;99.90
81192;DHT22;70665;47.652;-2.730;2024-03-22T08:33:37;11.30;99.90
81192;DHT22;70665;47.652;-2.730;2024-03-22T08:36:03;11.40;99.90
81192;DHT22;70665;47.652;-2.730;2024-03-22T08:38:29;11.40;99.90
81192;DHT22;70665;47.652;-2.730;2024-03-22T08:40:54;11.30;99.90
81192;DHT22;70665;47.652;-2.730;2024-03-22T08:43:20;11.30;99.90
81192;DHT22;70665;47.652;-2.730;2024-03-22T08:45:48;11.40;99.90
81192;DHT22;70665;47.652;-2.730;2024-03-22T08:48:13;11.40;99.90
81192;DHT22;70665;47.652;-2.730;2024-03-22T08:50:42;11.70;99.90
81192;DHT22;70665;47.652;-2.730;2024-03-22T08:53:08;11.60;99.90
81192;DHT22;70665;47.652;-2.730;2024-03-22T08:55:33;11.80;99.90
81192;DHT22;70665;47.652;-2.730;2024-03-22T08:57:59;12.00;99.90
81192;DHT22;70665;47.652;-2.730;2024-03-22T09:00:25;12.20;99.90
81192;DHT22;70665;47.652;-2.730;2024-03-22T09:02:50;12.30;99.90
81192;DHT22;70665;47.652;-2.730;2024-03-22T09:05:16;12.50;99.90
81192;DHT22;70665;47.652;-2.730;2024-03-22T09:07:42;12.70;99.90
81192;DHT22;70665;47.652;-2.730;2024-03-22T09:10:07;12.60;99.90
81192;DHT22;70665;47.652;-2.730;2024-03-22T09:12:34;12.70;99.90
81192;DHT22;70665;47.652;-2.730;2024-03-22T09:15:00;12.80;99.90
81192;DHT22;70665;47.652;-2.730;2024-03-22T09:17:26;13.00;99.90
81192;DHT22;70665;47.652;-2.730;2024-03-22T09:19:51;13.00;99.90
81192;DHT22;70665;47.652;-2.730;2024-03-22T09:22:17;13.10;99.90
81192;DHT22;70665;47.652;-2.730;2024-03-22T09:24:43;13.20;99.90
81192;DHT22;70665;47.652;-2.730;2024-03-22T09:27:08;13.20;99.90
81192;DHT22;70665;47.652;-2.730;2024-03-22T09:29:38;13.20;99.90
81192;DHT22;70665;47.652;-2.730;2024-03-22T09:32:04;13.20;99.90
81192;DHT22;70665;47.652;-2.730;2024-03-22T09:34:29;13.30;99.90
81192;DHT22;70665;47.652;-2.730;2024-03-22T09:36:56;13.30;99.90
81192;DHT22;70665;47.652;-2.730;2024-03-22T09:39:22;13.50;99.90
81192;DHT22;70665;47.652;-2.730;2024-03-22T09:41:48;13.50;99.90
81192;DHT22;70665;47.652;-2.730;2024-03-22T09:44:18;13.40;99.90
81192;DHT22;70665;47.652;-2.730;2024-03-22T09:46:44;13.30;99.90
81192;DHT22;70665;47.652;-2.730;2024-03-22T09:49:12;13.40;99.90
81192;DHT22;70665;47.652;-2.730;2024-03-22T09:51:39;13.50;99.90
81192;DHT22;70665;47.652;-2.730;2024-03-22T09:54:05;13.50;99.90
81192;DHT22;70665;47.652;-2.730;2024-03-22T09:56:31;13.30;99.90
81192;DHT22;70665;47.652;-2.730;2024-03-22T09:58:57;13.30;99.90
81192;DHT22;70665;47.652;-2.730;2024-03-22T10:01:24;13.40;99.90
81192;DHT22;70665;47.652;-2.730;2024-03-22T10:03:51;13.70;99.90
81192;DHT22;70665;47.652;-2.730;2024-03-22T10:06:18;14.00;99.90
81192;DHT22;70665;47.652;-2.730;2024-03-22T10:08:44;14.10;99.90
81192;DHT22;70665;47.652;-2.730;2024-03-22T10:11:10;14.00;99.90
81192;DHT22;70665;47.652;-2.730;2024-03-22T10:13:36;14.00;99.90
81192;DHT22;70665;47.652;-2.730;2024-03-22T10:16:02;14.10;99.90
81192;DHT22;70665;47.652;-2.730;2024-03-22T10:18:27;14.20;99.90
81192;DHT22;70665;47.652;-2.730;2024-03-22T10:21:03;14.40;99.90
81192;DHT22;70665;47.652;-2.730;2024-03-22T10:23:30;14.50;99.90
81192;DHT22;70665;47.652;-2.730;2024-03-22T10:25:57;14.70;99.90
81192;DHT22;70665;47.652;-2.730;2024-03-22T10:28:27;14.90;99.90
81192;DHT22;70665;47.652;-2.730;2024-03-22T10:30:53;15.20;99.90
81192;DHT22;70665;47.652;-2.730;2024-03-22T10:33:22;15.60;99.90
81192;DHT22;70665;47.652;-2.730;2024-03-22T10:35:53;15.50;99.90
81192;DHT22;70665;47.652;-2.730;2024-03-22T10:38:20;15.60;99.90
81192;DHT22;70665;47.652;-2.730;2024-03-22T10:40:46;16.00;99.90
81192;DHT22;70665;47.652;-2.730;2024-03-22T10:43:15;16.50;99.90
81192;DHT22;70665;47.652;-2.730;2024-03-22T10:45:41;16.50;99.90
81192;DHT22;70665;47.652;-2.730;2024-03-22T10:48:11;16.50;99.90
81192;DHT22;70665;47.652;-2.730;2024-03-22T10:50:41;16.70;99.90
81192;DHT22;70665;47.652;-2.730;2024-03-22T10:53:16;16.90;99.90
81192;DHT22;70665;47.652;-2.730;2024-03-22T10:55:47;17.00;99.90
81192;DHT22;70665;47.652;-2.730;2024-03-22T10:58:17;16.90;99.90
81192;DHT22;70665;47.652;-2.730;2024-03-22T11:00:44;17.00;99.90
81192;DHT22;70665;47.652;-2.730;2024-03-22T11:03:10;17.00;99.90
81192;DHT22;70665;47.652;-2.730;2024-03-22T11:05:48;16.70;99.90
81192;DHT22;70665;47.652;-2.730;2024-03-22T11:08:24;16.60;99.90
81192;DHT22;70665;47.652;-2.730;2024-03-22T11:10:50;16.60;99.90
81192;DHT22;70665;47.652;-2.730;2024-03-22T11:13:16;16.90;99.90
81192;DHT22;70665;47.652;-2.730;2024-03-22T11:15:42;16.90;99.90
81192;DHT22;70665;47.652;-2.730;2024-03-22T11:18:07;16.70;99.90
81192;DHT22;70665;47.652;-2.730;2024-03-22T11:20:36;16.40;99.90
81192;DHT22;70665;47.652;-2.730;2024-03-22T11:23:04;16.10;99.90
81192;DHT22;70665;47.652;-2.730;2024-03-22T11:25:31;15.90;99.90
81192;DHT22;70665;47.652;-2.730;2024-03-22T11:27:58;16.00;99.90
81192;DHT22;70665;47.652;-2.730;2024-03-22T11:30:24;16.00;99.90
81192;DHT22;70665;47.652;-2.730;2024-03-22T11:32:50;15.90;99.90
81192;DHT22;70665;47.652;-2.730;2024-03-22T11:35:16;16.00;99.90
81192;DHT22;70665;47.652;-2.730;2024-03-22T11:37:42;16.00;99.90
81192;DHT22;70665;47.652;-2.730;2024-03-22T11:40:11;16.00;99.90
81192;DHT22;70665;47.652;-2.730;2024-03-22T11:42:41;16.10;99.90
81192;DHT22;70665;47.652;-2.730;2024-03-22T11:45:10;16.30;99.90
81192;DHT22;70665;47.652;-2.730;2024-03-22T11:47:36;16.30;99.90
81192;DHT22;70665;47.652;-2.730;2024-03-22T11:50:02;16.50;99.90
81192;DHT22;70665;47.652;-2.730;2024-03-22T11:52:29;16.80;99.90
81192;DHT22;70665;47.652;-2.730;2024-03-22T11:54:55;16.90;99.90
81192;DHT22;70665;47.652;-2.730;2024-03-22T11:57:20;16.90;98.40
81192;DHT22;70665;47.652;-2.730;2024-03-22T11:59:46;17.10;96.50
81192;DHT22;70665;47.652;-2.730;2024-03-22T12:02:12;17.20;97.50
81192;DHT22;70665;47.652;-2.730;2024-03-22T12:04:42;17.20;97.60
81192;DHT22;70665;47.652;-2.730;2024-03-22T12:07:12;17.40;94.10
81192;DHT22;70665;47.652;-2.730;2024-03-22T12:09:39;17.40;93.90
81192;DHT22;70665;47.652;-2.730;2024-03-22T12:12:06;17.50;94.60
81192;DHT22;70665;47.652;-2.730;2024-03-22T12:14:33;17.60;89.50
81192;DHT22;70665;47.652;-2.730;2024-03-22T12:16:58;17.60;85.60
81192;DHT22;70665;47.652;-2.730;2024-03-22T12:19:24;17.70;84.10
81192;DHT22;70665;47.652;-2.730;2024-03-22T12:21:50;17.40;77.50
81192;DHT22;70665;47.652;-2.730;2024-03-22T12:24:15;17.60;77.00
81192;DHT22;70665;47.652;-2.730;2024-03-22T12:26:41;17.80;78.90
81192;DHT22;70665;47.652;-2.730;2024-03-22T12:29:06;18.00;79.20
81192;DHT22;70665;47.652;-2.730;2024-03-22T12:31:32;18.30;78.80
81192;DHT22;70665;47.652;-2.730;2024-03-22T12:33:59;18.60;74.30
81192;DHT22;70665;47.652;-2.730;2024-03-22T12:36:34;18.90;71.80
81192;DHT22;70665;47.652;-2.730;2024-03-22T12:38:59;18.80;65.90
81192;DHT22;70665;47.652;-2.730;2024-03-22T12:41:26;19.10;70.10
81192;DHT22;70665;47.652;-2.730;2024-03-22T12:43:51;19.20;63.70
81192;DHT22;70665;47.652;-2.730;2024-03-22T12:46:17;19.60;62.50
81192;DHT22;70665;47.652;-2.730;2024-03-22T12:48:43;19.70;59.50
81192;DHT22;70665;47.652;-2.730;2024-03-22T12:51:08;19.90;58.30
81192;DHT22;70665;47.652;-2.730;2024-03-22T12:53:34;20.20;55.40
81192;DHT22;70665;47.652;-2.730;2024-03-22T12:56:00;20.40;57.70
81192;DHT22;70665;47.652;-2.730;2024-03-22T12:58:25;20.80;55.10
81192;DHT22;70665;47.652;-2.730;2024-03-22T13:00:51;21.00;54.50
81192;DHT22;70665;47.652;-2.730;2024-03-22T13:03:17;21.10;54.80
81192;DHT22;70665;47.652;-2.730;2024-03-22T13:05:43;21.30;47.90
81192;DHT22;70665;47.652;-2.730;2024-03-22T13:08:08;21.30;52.70
81192;DHT22;70665;47.652;-2.730;2024-03-22T13:10:34;22.00;52.00
81192;DHT22;70665;47.652;-2.730;2024-03-22T13:12:59;22.10;46.80
81192;DHT22;70665;47.652;-2.730;2024-03-22T13:15:25;22.40;51.90
81192;DHT22;70665;47.652;-2.730;2024-03-22T13:17:51;22.60;60.50
81192;DHT22;70665;47.652;-2.730;2024-03-22T13:20:18;22.60;60.20
81192;DHT22;70665;47.652;-2.730;2024-03-22T13:22:45;22.20;61.20
81192;DHT22;70665;47.652;-2.730;2024-03-22T13:25:11;21.80;60.20
81192;DHT22;70665;47.652;-2.730;2024-03-22T13:27:37;21.80;61.60
81192;DHT22;70665;47.652;-2.730;2024-03-22T13:30:07;21.80;61.40
81192;DHT22;70665;47.652;-2.730;2024-03-22T13:32:39;21.80;61.90
81192;DHT22;70665;47.652;-2.730;2024-03-22T13:35:05;21.90;63.50
81192;DHT22;70665;47.652;-2.730;2024-03-22T13:37:31;22.00;62.90
81192;DHT22;70665;47.652;-2.730;2024-03-22T13:39:57;22.50;61.00
81192;DHT22;70665;47.652;-2.730;2024-03-22T13:42:23;22.40;57.90
81192;DHT22;70665;47.652;-2.730;2024-03-22T13:44:49;22.40;59.40
81192;DHT22;70665;47.652;-2.730;2024-03-22T13:47:15;22.60;57.90
81192;DHT22;70665;47.652;-2.730;2024-03-22T13:49:40;22.50;58.50
81192;DHT22;70665;47.652;-2.730;2024-03-22T13:52:10;23.10;56.30
81192;DHT22;70665;47.652;-2.730;2024-03-22T13:54:36;23.40;56.70
81192;DHT22;70665;47.652;-2.730;2024-03-22T13:57:01;23.70;53.40
81192;DHT22;70665;47.652;-2.730;2024-03-22T13:59:28;23.50;54.20
81192;DHT22;70665;47.652;-2.730;2024-03-22T14:01:54;23.80;55.30
81192;DHT22;70665;47.652;-2.730;2024-03-22T14:04:22;24.30;52.40
81192;DHT22;70665;47.652;-2.730;2024-03-22T14:06:48;24.40;51.70
81192;DHT22;70665;47.652;-2.730;2024-03-22T14:09:14;24.00;52.20
81192;DHT22;70665;47.652;-2.730;2024-03-22T14:11:41;24.00;52.50
81192;DHT22;70665;47.652;-2.730;2024-03-22T14:14:11;24.00;53.50
81192;DHT22;70665;47.652;-2.730;2024-03-22T14:16:40;24.10;52.50
81192;DHT22;70665;47.652;-2.730;2024-03-22T14:19:07;24.40;53.90
81192;DHT22;70665;47.652;-2.730;2024-03-22T14:21:34;24.80;52.20
81192;DHT22;70665;47.652;-2.730;2024-03-22T14:24:00;24.90;50.40
81192;DHT22;70665;47.652;-2.730;2024-03-22T14:26:25;25.00;50.30
81192;DHT22;70665;47.652;-2.730;2024-03-22T14:28:51;25.20;53.40
81192;DHT22;70665;47.652;-2.730;2024-03-22T14:31:18;25.30;50.80
81192;DHT22;70665;47.652;-2.730;2024-03-22T14:33:45;25.70;49.50
81192;DHT22;70665;47.652;-2.730;2024-03-22T14:36:10;25.90;50.90
81192;DHT22;70665;47.652;-2.730;2024-03-22T14:38:38;25.50;48.00
81192;DHT22;70665;47.652;-2.730;2024-03-22T14:41:04;25.30;50.40
81192;DHT22;70665;47.652;-2.730;2024-03-22T14:43:29;25.90;49.30
81192;DHT22;70665;47.652;-2.730;2024-03-22T14:46:01;26.60;49.50
81192;DHT22;70665;47.652;-2.730;2024-03-22T14:48:30;26.70;48.30
81192;DHT22;70665;47.652;-2.730;2024-03-22T14:50:56;26.20;47.90
81192;DHT22;70665;47.652;-2.730;2024-03-22T14:53:21;26.30;46.60
81192;DHT22;70665;47.652;-2.730;2024-03-22T14:58:20;24.50;54.00
81192;DHT22;70665;47.652;-2.730;2024-03-22T15:00:56;23.60;51.70
81192;DHT22;70665;47.652;-2.730;2024-03-22T15:03:23;23.10;54.20
81192;DHT22;70665;47.652;-2.730;2024-03-22T15:05:52;23.20;54.80
81192;DHT22;70665;47.652;-2.730;2024-03-22T15:08:19;22.80;56.40
81192;DHT22;70665;47.652;-2.730;2024-03-22T15:10:44;22.20;60.50
81192;DHT22;70665;47.652;-2.730;2024-03-22T15:13:11;21.80;62.60